Terminal Aerodrome Forecast
Issued by NWS

Home | Current Version | Previous Version | Text Only | Print | Product List | Glossary On
Versions: 1 2 3 4 5 6 7 8 9 10 11 12 13 14 15 16 17 18 19 20 21 22 23 24
495
FTUS44 KOUN 291126
TAFWWR
TAF
KWWR 291126Z 2912/3012 15010KT P6SM VCTS SCT040CB SCT100 BKN250
      TEMPO 2912/2914 4SM TSRA BKN040CB BKN120
     FM291400 15008KT P6SM BKN060 BKN120 BKN200
     FM300000 13007KT P6SM SCT250 PROB30 3000/3003 5SM TS BKN050CB
      AMD NOT SKED=

USA.gov is the U.S. government's official web portal to all federal, state and local government web resources and services.